Flight Track Log - Related Links

Times and Time Zones

All times are in EDT time to prevent confusion due to time zone crossing. See the TAM3421 flight status page for this flight to view local times or setup timezone preferences in your user account.

Time Position Orientation Groundspeed Altitude Reporting Facility
EDT Latitude Longitude Course Direction KTS MPH feet Rate Location/Type
Mon 05:44:00 PM -6.2456 -47.3514 167° South  Level Estimated
Mon 05:45:00 PM -6.3562 -47.3256 167° South  Level Estimated
Mon 05:46:00 PM -6.4667 -47.2999 167° South  Level Estimated
Mon 05:47:00 PM -6.5773 -47.2741 167° South  Level Estimated
Mon 05:48:00 PM -6.6879 -47.2483 167° South  Level Estimated
Mon 05:49:00 PM -6.7984 -47.2225 167° South  Level Estimated
Mon 05:50:00 PM -6.9090 -47.1967 167° South  Level Estimated
Mon 05:51:00 PM -7.0196 -47.1709 167° South  Level Estimated
Mon 05:52:00 PM -7.1301 -47.1451 167° South  Level Estimated
Mon 05:53:00 PM -7.2407 -47.1192 167° South  Level Estimated
Mon 05:54:00 PM -7.3513 -47.0934 167° South  Level Estimated
Mon 05:55:00 PM -7.4619 -47.0675 167° South  Level Estimated
Mon 05:56:00 PM -7.5724 -47.0416 167° South  Level Estimated
Mon 05:57:00 PM -7.6830 -47.0157 167° South  Level Estimated
Mon 05:58:00 PM -7.7935 -46.9898 167° South  Level Estimated
Mon 05:59:00 PM -7.9041 -46.9639 167° South  Level Estimated
Mon 06:00:00 PM -8.0147 -46.9380 167° South  Level Estimated
Mon 06:01:00 PM -8.1252 -46.9120 167° South  Level Estimated
Mon 06:02:00 PM -8.2358 -46.8861 167° South  Level Estimated
Mon 06:03:00 PM -8.3463 -46.8601 167° South  Level Estimated
Mon 06:04:00 PM -8.4569 -46.8341 167° South  Level Estimated
Mon 06:05:00 PM -8.5674 -46.8081 167° South  Level Estimated
Mon 06:06:00 PM -8.6779 -46.7821 167° South  Level Estimated
Mon 06:07:00 PM -8.7885 -46.7560 167° South  Level Estimated
Mon 06:08:00 PM -8.8990 -46.7300 167° South  Level Estimated
Mon 06:08:57 PM -9.1890 -46.5840 167° South 486 559 36,000  Level FlightAware ADS-B
Mon 06:09:00 PM -9.0096 -46.7039 167° South  Level Estimated
Mon 06:10:12 PM -9.1890 -46.5840 167° South 485 558 36,000  Level FlightAware ADS-B
Mon 06:11:02 PM -9.3950 -46.5420 169° South 485 558 36,000  Level FlightAware ADS-B
Mon 06:11:37 PM -9.5390 -46.5120 168° South 485 558 36,000  Level FlightAware ADS-B
Mon 06:12:17 PM -9.6130 -46.4960 168° South 485 558 36,000  Level FlightAware ADS-B
Mon 06:13:02 PM -9.7230 -46.4690 166° South 482 555 36,000  Level FlightAware ADS-B
Mon 06:13:42 PM -9.8060 -46.4480 166° South 480 552 36,000  Level FlightAware ADS-B
Mon 06:14:32 PM -9.8980 -46.4250 166° South 480 552 36,000  Level FlightAware ADS-B
Mon 06:15:12 PM -10.0110 -46.4010 168° South 479 551 36,000  Level FlightAware ADS-B
Mon 06:15:52 PM -10.0870 -46.3820 166° South 479 551 36,000  Level FlightAware ADS-B
Mon 06:16:32 PM -10.1600 -46.3630 166° South 479 551 36,000  Level FlightAware ADS-B
Mon 06:17:12 PM -10.2330 -46.3450 166° South 479 551 36,000  Level FlightAware ADS-B
Mon 06:18:02 PM -10.3240 -46.3210 165° South 479 551 36,000  Level FlightAware ADS-B
Mon 06:18:42 PM -10.3980 -46.3030 167° South 479 551 36,000  Level FlightAware ADS-B
Mon 06:19:22 PM -10.4710 -46.2840 166° South 479 551 36,000  Level FlightAware ADS-B
Mon 06:20:02 PM -10.5440 -46.2660 166° South 479 551 36,000  Level FlightAware ADS-B
Mon 06:20:42 PM -10.6170 -46.2470 166° South 479 551 36,000  Level FlightAware ADS-B
Mon 06:21:32 PM -10.7080 -46.2240 166° South 479 551 36,000  Level FlightAware ADS-B
Mon 06:22:12 PM -10.9170 -46.1860 170° South 472 543 36,000  Level FlightAware ADS-B
Mon 06:23:02 PM -11.0230 -46.1600 166° South 472 543 36,000  Level FlightAware ADS-B
Mon 06:23:52 PM -11.1130 -46.1370 166° South 472 543 36,000  Level FlightAware ADS-B
Mon 06:24:32 PM -11.1850 -46.1190 166° South 472 543 36,000  Level FlightAware ADS-B
Mon 06:25:12 PM -11.2570 -46.1000 165° South 472 543 36,000  Level FlightAware ADS-B
Mon 06:25:52 PM -11.3290 -46.0820 166° South 472 543 36,000  Level FlightAware ADS-B
Mon 06:26:32 PM -11.4010 -46.0640 166° South 472 543 36,000  Level FlightAware ADS-B
Mon 06:27:22 PM -11.4910 -46.0410 166° South 472 543 36,000  Level FlightAware ADS-B
Mon 06:28:02 PM -11.5630 -46.0220 166° South 472 543 36,000  Level FlightAware ADS-B
Mon 06:28:42 PM -11.6350 -46.0040 166° South 472 543 36,000  Level FlightAware ADS-B
Mon 06:29:22 PM -11.7070 -45.9860 166° South 472 543 36,000  Level FlightAware ADS-B
Mon 06:30:02 PM -11.7790 -45.9670 166° South 472 543 36,000  Level FlightAware ADS-B
Mon 06:30:52 PM -11.8690 -45.9440 166° South 472 543 36,000  Level FlightAware ADS-B
Mon 06:31:32 PM -11.9410 -45.9260 166° South 472 543 36,000  Level FlightAware ADS-B
Mon 06:32:12 PM -12.0130 -45.9080 166° South 472 543 36,000  Level FlightAware ADS-B
Mon 06:34:00 PM -12.2122 -45.8614 167° South  Level Estimated
Mon 06:35:00 PM -12.3228 -45.8355 167° South  Level Estimated
Mon 06:36:00 PM -12.4334 -45.8096 167° South  Level Estimated
Mon 06:37:00 PM -12.5441 -45.7837 167° South  Level Estimated
Mon 06:38:00 PM -12.6547 -45.7577 167° South  Level Estimated
Mon 06:39:00 PM -12.7654 -45.7317 167° South  Level Estimated
Mon 06:40:00 PM -12.8760 -45.7057 167° South  Level Estimated
Mon 06:41:00 PM -12.9866 -45.6797 167° South  Level Estimated
Mon 06:42:00 PM -13.0972 -45.6536 167° South  Level Estimated
Mon 06:43:00 PM -13.2079 -45.6275 167° South  Level Estimated
Mon 06:44:00 PM -13.3185 -45.6014 167° South  Level Estimated
Mon 06:45:00 PM -13.4291 -45.5753 167° South  Level Estimated
Mon 06:46:00 PM -13.5397 -45.5491 167° South  Level Estimated
Mon 06:47:00 PM -13.6503 -45.5230 167° South  Level Estimated
Mon 06:48:00 PM -13.7609 -45.4968 167° South  Level Estimated
Mon 06:49:00 PM -13.8715 -45.4705 167° South  Level Estimated
Mon 06:50:00 PM -13.9821 -45.4443 167° South  Level Estimated
Mon 06:51:00 PM -14.0927 -45.4180 167° South  Level Estimated
Mon 06:52:00 PM -14.2033 -45.3917 167° South  Level Estimated
Mon 06:53:00 PM -14.3139 -45.3654 167° South  Level Estimated
Mon 06:54:00 PM -14.4245 -45.3390 167° South  Level Estimated
Mon 06:55:00 PM -14.5351 -45.3126 167° South  Level Estimated
Mon 06:56:00 PM -14.6457 -45.2862 167° South  Level Estimated
Mon 06:57:00 PM -14.7563 -45.2598 167° South  Level Estimated
Mon 06:58:00 PM -14.8668 -45.2333 167° South  Level Estimated
Mon 06:59:00 PM -14.9774 -45.2069 167° South  Level Estimated
Mon 07:00:00 PM -15.0880 -45.1804 167° South  Level Estimated
Mon 07:01:00 PM -15.1986 -45.1538 167° South  Level Estimated
Mon 07:02:00 PM -15.3091 -45.1272 167° South  Level Estimated
Mon 07:03:00 PM -15.4197 -45.1006 167° South  Level Estimated
Mon 07:03:12 PM -16.1850 -44.9060 167° South 473 544 36,000  Level FlightAware ADS-B
Mon 07:04:00 PM -15.5303 -45.0740 167° South  Level Estimated
Mon 07:04:02 PM -16.2920 -44.8790 166° South 471 542 36,000  Level FlightAware ADS-B
Mon 07:04:37 PM -16.3670 -44.8610 167° South 470 541 36,000  Level FlightAware ADS-B
Mon 07:05:22 PM -16.4590 -44.8370 166° South 469 540 36,000  Level FlightAware ADS-B
Mon 07:06:07 PM -16.5580 -44.8120 166° South 468 539 36,000  Level FlightAware ADS-B
Mon 07:07:02 PM -16.6740 -44.7830 167° South 470 541 36,000  Level FlightAware ADS-B
Mon 07:07:42 PM -16.7530 -44.7630 166° South 471 542 36,000  Level FlightAware ADS-B
Mon 07:08:27 PM -16.8520 -44.7380 166° South 470 541 36,000  Level FlightAware ADS-B
Mon 07:09:07 PM -16.9370 -44.7170 167° South 468 539 36,000  Level FlightAware ADS-B
Mon 07:09:47 PM -17.0250 -44.6960 167° South 470 541 36,000  Level FlightAware ADS-B
Mon 07:10:32 PM -17.1130 -44.6740 167° South 470 541 36,000  Level FlightAware ADS-B
Mon 07:11:12 PM -17.2030 -44.6520 167° South 465 535 36,000  Level FlightAware ADS-B
Mon 07:11:47 PM -17.2770 -44.6340 167° South 463 533 36,000  Level FlightAware ADS-B
Mon 07:12:37 PM -17.3790 -44.6080 166° South 462 532 36,000  Level FlightAware ADS-B
Mon 07:13:12 PM -17.4480 -44.5920 168° South 462 532 36,000  Level FlightAware ADS-B
Mon 07:14:02 PM -17.5580 -44.5640 166° South 465 535 36,000  Level FlightAware ADS-B
Mon 07:14:42 PM -17.6400 -44.5440 167° South 468 539 36,000  Level FlightAware ADS-B
Mon 07:15:27 PM -17.7380 -44.5190 166° South 471 542 36,000  Level FlightAware ADS-B
Mon 07:16:07 PM -17.8220 -44.4960 165° South 471 542 36,000  Level FlightAware ADS-B
Mon 07:16:47 PM -17.9050 -44.4730 165° South 470 541 36,000  Level FlightAware ADS-B
Mon 07:17:32 PM -18.0000 -44.4480 166° South 469 540 36,000  Level FlightAware ADS-B
Mon 07:18:12 PM -18.0850 -44.4260 166° South 466 536 36,000  Level FlightAware ADS-B
Mon 07:18:57 PM -18.1790 -44.4020 166° South 465 535 36,000  Level FlightAware ADS-B
Mon 07:19:37 PM -18.2630 -44.3810 167° South 467 537 36,000  Level FlightAware ADS-B
Mon 07:20:17 PM -18.3470 -44.3590 166° South 467 537 36,000  Level FlightAware ADS-B
Mon 07:21:02 PM -18.4440 -44.3350 167° South 466 536 36,000  Level FlightAware ADS-B
Mon 07:21:42 PM -18.5270 -44.3130 166° South 465 535 36,000  Level FlightAware ADS-B
Mon 07:22:27 PM -18.6220 -44.2890 167° South 464 534 36,000  Level FlightAware ADS-B
Mon 07:23:07 PM -18.7060 -44.2680 167° South 464 534 36,000  Level FlightAware ADS-B
Mon 07:23:52 PM -18.7980 -44.2440 166° South 463 533 36,000  Level FlightAware ADS-B
Mon 07:24:32 PM -18.8830 -44.2230 167° South 465 535 36,000  Level FlightAware ADS-B
Mon 07:25:12 PM -18.9670 -44.2010 166° South 466 536 36,000  Level FlightAware ADS-B
Mon 07:25:57 PM -19.0570 -44.1780 166° South 467 537 36,000  Level FlightAware ADS-B
Mon 07:26:37 PM -19.1470 -44.1550 166° South 467 537 36,000  Level FlightAware ADS-B
Mon 07:27:17 PM -19.2280 -44.1340 166° South 465 535 36,000  Level FlightAware ADS-B
Mon 07:28:02 PM -19.3230 -44.1090 166° South 466 536 36,000  Level FlightAware ADS-B
Mon 07:28:42 PM -19.4050 -44.0880 166° South 464 534 36,000  Level FlightAware ADS-B
Mon 07:29:27 PM -19.4940 -44.0650 166° South 462 532 36,000  Level FlightAware ADS-B
Mon 07:30:02 PM -19.5660 -44.0470 167° South 461 531 36,000  Level FlightAware ADS-B
Mon 07:30:47 PM -19.6530 -44.0280 168° South 461 531 36,000  Level FlightAware ADS-B
Mon 07:31:27 PM -19.7240 -44.0120 168° South 461 531 36,000  Level FlightAware ADS-B
Mon 07:32:07 PM -19.7940 -43.9960 168° South 461 531 36,000  Level FlightAware ADS-B
Mon 07:32:47 PM -19.8650 -43.9800 168° South 461 531 36,000  Level FlightAware ADS-B
Mon 07:33:22 PM -19.9200 -43.9090 129° Southeast 490 564 36,000  Level FlightAware ADS-B
Mon 07:34:07 PM -19.9890 -43.8490 141° Southeast 490 564 36,000  Level FlightAware ADS-B
Mon 07:34:47 PM -20.0480 -43.7980 141° Southeast 490 564 36,000  Level FlightAware ADS-B
Mon 07:35:27 PM -20.1080 -43.7460 141° Southeast 490 564 36,000  Level FlightAware ADS-B
Mon 07:36:12 PM -20.1870 -43.6370 128° Southeast 489 563 36,000  Level FlightAware ADS-B
Mon 07:36:47 PM -20.2590 -43.5930 150° Southeast 470 541 36,000  Level FlightAware ADS-B
Mon 07:38:17 PM -20.5010 -43.6390 190° South 432 497 36,000  Level FlightAware ADS-B
Mon 07:38:52 PM -20.5650 -43.6630 199° South 432 497 36,000  Level FlightAware ADS-B
Mon 07:39:42 PM -20.6620 -43.7010 200° South 432 497 36,000  Level FlightAware ADS-B
Mon 07:40:37 PM -20.7600 -43.7380 199° South 422 486 36,000  Level FlightAware ADS-B
Mon 07:41:17 PM -20.8310 -43.7660 200° South 416 479 36,000  Level FlightAware ADS-B
Mon 07:42:02 PM -20.8490 -43.7730 200° South 413 475 36,000  Level FlightAware ADS-B
Mon 07:42:42 PM -20.9380 -43.8070 200° South 414 476 36,000  Level FlightAware ADS-B
Mon 07:43:17 PM -20.9980 -43.8310 200° South 416 479 36,000  Level FlightAware ADS-B
Mon 07:43:57 PM -21.0700 -43.8590 200° South 417 480 36,000  Level FlightAware ADS-B
Mon 07:44:52 PM -21.2240 -43.9180 200° South 415 478 36,000 -1,137 Level FlightAware ADS-B
Mon 07:45:32 PM -21.2990 -43.9480 200° South 418 481 34,200 -2,475 Descending FlightAware ADS-B
Mon 07:46:12 PM -21.3740 -43.9770 200° South 412 474 32,700 -2,100 Descending FlightAware ADS-B
Mon 07:46:52 PM -21.4410 -44.0030 200° South 407 468 31,400 -2,188 Descending FlightAware ADS-B
Mon 07:47:37 PM -21.5230 -44.0350 200° South 403 464 29,600 -2,267 Descending FlightAware ADS-B
Mon 07:48:22 PM -21.5980 -44.0640 200° South 400 460 28,000 -540 Descending FlightAware ADS-B
Mon 07:49:17 PM -21.5660 -44.0520 19° North 401 461 28,700 -947 Climbing FlightAware ADS-B
Mon 07:49:57 PM -21.6680 -44.0920 200° South 397 457 26,500 -1,760 Descending FlightAware ADS-B
Mon 07:50:32 PM -21.7210 -44.1130 200° South 397 457 26,500  Level FlightAware ADS-B
Mon 07:51:22 PM -21.7940 -44.1410 200° South 397 457 26,500  Level FlightAware ADS-B
Mon 07:52:02 PM -21.8530 -44.1640 200° South 397 457 26,500  Level FlightAware ADS-B
Mon 07:52:42 PM -21.9120 -44.1870 200° South 397 457 26,500 -4,120 Level FlightAware ADS-B
Mon 07:52:57 PM -22.0490 -44.1100 152° Southeast 18,300 -5,618 Descending FlightAware ADS-B
Mon 07:53:32 PM -22.1140 -44.0670 148° Southeast 16,900 -1,326 Descending FlightAware ADS-B
Mon 07:54:32 PM -22.1800 -44.0230 148° Southeast 365 420 16,200 -420 Descending FlightAware ADS-B
Mon 07:55:12 PM -22.2280 -43.9900 148° Southeast 365 420 16,200  Level FlightAware ADS-B
Mon 07:56:02 PM -22.2890 -43.9490 148° Southeast 365 420 16,200 -3,200 Level FlightAware ADS-B
Mon 07:56:42 PM -22.3660 -43.8990 149° Southeast 346 398 11,400 -4,125 Descending FlightAware ADS-B
Mon 07:57:22 PM -22.4200 -43.8630 148° Southeast 322 371 10,700 -1,059 Descending FlightAware ADS-B
Mon 07:58:07 PM -22.4710 -43.8250 145° Southeast 307 353 9,900 -1,114 Descending FlightAware ADS-B
Mon 07:58:32 PM -22.4940 -43.8030 139° Southeast 301 346 9,400 -1,418 Descending FlightAware ADS-B
Mon 07:59:02 PM -22.5310 -43.7680 139° Southeast 294 338 8,600 -1,418 Descending FlightAware ADS-B
Mon 07:59:27 PM -22.5530 -43.7470 139° Southeast 288 331 8,100 -1,200 Descending FlightAware ADS-B
Mon 07:59:57 PM -22.5800 -43.7220 139° Southeast 287 330 7,500 -933 Descending FlightAware ADS-B
Mon 08:00:12 PM -22.5970 -43.7060 139° Southeast 292 336 7,400 -400 Descending FlightAware ADS-B
Mon 08:00:27 PM -22.6110 -43.6880 130° Southeast 299 344 7,300 -1,200 Descending FlightAware ADS-B
Mon 08:00:52 PM -22.6310 -43.6510 120° Southeast 298 343 6,600 -1,320 Descending FlightAware ADS-B
Mon 08:01:17 PM -22.6440 -43.6250 118° Southeast 292 336 6,200 -1,200 Descending FlightAware ADS-B
Mon 08:01:52 PM -22.6660 -43.5830 120° Southeast 283 326 5,400 -1,309 Descending FlightAware ADS-B
Mon 08:02:12 PM -22.6800 -43.5560 119° Southeast 277 319 5,000 -600 Descending FlightAware ADS-B
Mon 08:02:42 PM -22.7010 -43.5150 119° Southeast 250 288 4,900 -600 Descending FlightAware ADS-B
Mon 08:03:42 PM -22.7210 -43.4470 108° East 221 254 4,100 -505 Descending FlightAware ADS-B
Mon 08:04:17 PM -22.7230 -43.4170 94° East 216 249 4,100 -971 Level FlightAware ADS-B
Mon 08:05:27 PM -22.7490 -43.3600 116° Southeast 185 213 2,400 -1,409 Descending FlightAware ADS-B
Mon 08:06:12 PM -22.7700 -43.3280 125° Southeast 141 162 1,400 -776 Descending FlightAware ADS-B
Mon 08:06:52 PM -22.7820 -43.3090 124° Southeast 139 160 1,300 -720 Descending FlightAware ADS-B
Mon 08:07:27 PM -22.7960 -43.2880 126° Southeast 131 151 500 -686 Descending FlightAware ADS-B
Mon 08:08:02 PM -22.8060 -43.2730 126° Southeast 132 152 500  Level FlightAware ADS-B
Mon 08:10:00 PM -22.8089 -43.2436 96° East  Level Estimated
Mon 08:11:00 PM -22.8089 -43.2436 137° Southeast  Level Estimated
Mon 08:12:00 PM -22.8089 -43.2436 137° Southeast  Level Estimated
Mon 08:13:00 PM -22.8089 -43.2436 137° Southeast  Level Estimated
Mon 08:14:00 PM -22.8089 -43.2436 137° Southeast  Level Estimated
Mon 08:15:00 PM -22.8089 -43.2436 137° Southeast  Level Estimated
Mon 08:16:00 PM -22.8089 -43.2436 137° Southeast  Level Estimated
Mon 08:17:00 PM -22.8089 -43.2436 137° Southeast  Level Estimated
Mon 08:18:00 PM -22.8089 -43.2436 137° Southeast  Level Estimated
Mon 08:19:00 PM -22.8089 -43.2436 137° Southeast  Level Estimated
Mon 08:20:00 PM -22.8089 -43.2436 137° Southeast  Level Estimated
Mon 08:21:00 PM -22.8089 -43.2436 137° Southeast  Level Estimated
Mon 08:22:00 PM -22.8089 -43.2436 137° Southeast  Level Estimated
Mon 08:23:00 PM -22.8089 -43.2436 137° Southeast  Level Estimated
Mon 08:24:00 PM -22.8089 -43.2436 137° Southeast  Level Estimated
Mon 08:25:00 PM -22.8089 -43.2436 137° Southeast  Level Estimated
Mon 08:26:00 PM -22.8089 -43.2436 137° Southeast  Level Estimated
Mon 08:27:00 PM -22.8089 -43.2436 137° Southeast  Level Estimated
Mon 08:28:00 PM -22.8089 -43.2436 137° Southeast  Level Estimated
Mon 08:29:00 PM -22.8089 -43.2436 137° Southeast  Level Estimated
Mon 08:30:00 PM -22.8089 -43.2436 137° Southeast  Level Estimated

Login

Don't have an account? Register now (free) for customized features, flight alerts, and more!